createdAt,value
2018-11-14T00:02:24.793Z,5.28
2018-11-14T00:04:52.920Z,6.10
2018-11-14T00:07:21.097Z,6.95
2018-11-14T00:09:49.171Z,5.85
2018-11-14T00:12:17.585Z,5.45
2018-11-14T00:14:45.706Z,4.40
2018-11-14T00:17:13.861Z,4.80
2018-11-14T00:19:42.016Z,5.10
2018-11-14T00:22:10.170Z,4.92
2018-11-14T00:24:38.293Z,5.45
2018-11-14T00:27:06.436Z,4.92
2018-11-14T00:29:34.508Z,5.40
2018-11-14T00:32:02.603Z,5.47
2018-11-14T00:34:30.736Z,6.40
2018-11-14T00:36:58.801Z,5.47
2018-11-14T00:39:26.927Z,5.55
2018-11-14T00:41:55.037Z,6.40
2018-11-14T00:44:23.200Z,5.03
2018-11-14T00:46:51.292Z,5.83
2018-11-14T00:49:19.368Z,5.40
2018-11-14T00:51:47.462Z,5.65
2018-11-14T00:54:15.548Z,5.60
2018-11-14T00:56:43.624Z,6.30
2018-11-14T00:59:11.698Z,6.55
2018-11-14T01:01:39.937Z,5.90
2018-11-14T01:04:07.922Z,6.15
2018-11-14T01:06:36.005Z,6.08
2018-11-14T01:09:05.840Z,6.28
2018-11-14T01:11:33.915Z,6.50
2018-11-14T01:14:01.984Z,6.00
2018-11-14T01:16:30.093Z,6.17
2018-11-14T01:18:58.189Z,5.87
2018-11-14T01:21:26.461Z,5.80
2018-11-14T01:23:54.582Z,6.20
2018-11-14T01:26:22.805Z,6.15
2018-11-14T01:28:50.913Z,7.85
2018-11-14T01:31:19.052Z,6.00
2018-11-14T01:33:47.154Z,6.28
2018-11-14T01:36:15.227Z,6.80
2018-11-14T01:38:43.307Z,6.95
2018-11-14T01:41:11.420Z,5.67
2018-11-14T01:43:39.556Z,7.20
2018-11-14T01:46:07.661Z,6.83
2018-11-14T01:48:35.766Z,6.70
2018-11-14T01:51:03.947Z,6.58
2018-11-14T01:53:32.054Z,6.20
2018-11-14T01:56:00.578Z,5.50
2018-11-14T01:58:28.664Z,7.30
2018-11-14T02:00:56.778Z,6.00
2018-11-14T02:03:24.905Z,8.30
2018-11-14T02:05:52.956Z,7.87
2018-11-14T02:08:21.026Z,7.97
2018-11-14T02:10:49.081Z,6.85
2018-11-14T02:13:17.146Z,7.30
2018-11-14T02:15:45.216Z,6.72
2018-11-14T02:18:13.287Z,7.28
2018-11-14T02:20:41.529Z,6.75
2018-11-14T02:23:09.593Z,6.90
2018-11-14T02:25:37.656Z,7.45
2018-11-14T02:28:06.097Z,5.33
2018-11-14T02:30:34.181Z,5.55
2018-11-14T02:33:02.311Z,6.92
2018-11-14T02:35:30.402Z,5.62
2018-11-14T02:37:58.492Z,5.72
2018-11-14T02:40:26.579Z,6.10
2018-11-14T02:42:54.683Z,5.87
2018-11-14T02:45:22.768Z,6.25
2018-11-14T02:47:50.867Z,5.53
2018-11-14T02:50:19.504Z,5.53
2018-11-14T02:52:47.600Z,5.58
2018-11-14T02:55:16.781Z,6.58
2018-11-14T02:57:45.355Z,6.00
2018-11-14T03:00:15.681Z,5.55
2018-11-14T03:02:44.161Z,5.15
2018-11-14T03:05:12.229Z,4.58
2018-11-14T03:07:40.309Z,5.90
2018-11-14T03:10:13.398Z,4.70
2018-11-14T03:12:41.879Z,6.17
2018-11-14T03:15:12.267Z,5.00
2018-11-14T03:17:40.330Z,4.30
2018-11-14T03:20:10.940Z,5.83
2018-11-14T03:22:39.489Z,4.67
2018-11-14T03:25:08.628Z,4.78
2018-11-14T03:27:36.762Z,5.10
2018-11-14T03:30:06.781Z,3.92
2018-11-14T03:32:34.861Z,5.22
2018-11-14T03:35:02.948Z,4.85
2018-11-14T03:37:31.056Z,4.92
2018-11-14T03:39:59.128Z,4.33
2018-11-14T03:42:27.290Z,5.65
2018-11-14T03:44:55.349Z,4.42
2018-11-14T03:47:23.514Z,4.70
2018-11-14T03:49:51.594Z,4.67
2018-11-14T03:52:19.709Z,4.72
2018-11-14T03:54:47.831Z,5.62
2018-11-14T03:57:15.943Z,5.30
2018-11-14T03:59:44.042Z,5.20
2018-11-14T04:02:12.128Z,5.08
2018-11-14T04:04:40.206Z,4.42
2018-11-14T04:07:08.269Z,4.87
2018-11-14T04:09:36.352Z,4.25
2018-11-14T04:12:04.438Z,6.15
2018-11-14T04:14:32.500Z,4.83
2018-11-14T04:17:00.624Z,5.05
2018-11-14T04:19:28.697Z,5.37
2018-11-14T04:21:56.793Z,5.33
2018-11-14T04:24:24.934Z,5.58
2018-11-14T04:26:53.169Z,5.00
2018-11-14T04:29:21.233Z,5.00
2018-11-14T04:31:49.399Z,4.40
2018-11-14T04:34:17.617Z,4.35
2018-11-14T04:36:45.883Z,4.15
2018-11-14T04:39:13.949Z,4.25
2018-11-14T04:41:42.045Z,4.37
2018-11-14T04:44:10.096Z,3.98
2018-11-14T04:46:38.225Z,3.50
2018-11-14T04:49:06.288Z,3.75
2018-11-14T04:51:34.384Z,4.10
2018-11-14T04:54:02.445Z,4.08
2018-11-14T04:56:30.503Z,4.62
2018-11-14T04:58:58.608Z,4.83
2018-11-14T05:01:26.666Z,4.37
2018-11-14T05:03:54.757Z,4.83
2018-11-14T05:06:22.925Z,5.22
2018-11-14T05:08:51.067Z,5.20
2018-11-14T05:11:19.140Z,5.58
2018-11-14T05:13:47.168Z,4.80
2018-11-14T05:16:15.237Z,4.75
2018-11-14T05:18:43.348Z,4.40
2018-11-14T05:21:11.464Z,4.53
2018-11-14T05:23:39.580Z,3.92
2018-11-14T05:26:07.897Z,4.97
2018-11-14T05:28:35.988Z,4.60
2018-11-14T05:31:04.387Z,4.75
2018-11-14T05:33:32.487Z,4.28
2018-11-14T05:36:00.581Z,5.00
2018-11-14T05:38:28.753Z,3.92
2018-11-14T05:40:56.852Z,4.28
2018-11-14T05:43:24.927Z,4.00
2018-11-14T05:45:53.205Z,4.08
2018-11-14T05:48:21.268Z,3.70
2018-11-14T05:50:49.413Z,4.05
2018-11-14T05:53:17.476Z,3.55
2018-11-14T05:55:45.562Z,3.72
2018-11-14T05:58:13.666Z,5.03
2018-11-14T06:00:41.767Z,4.42
2018-11-14T06:03:09.833Z,4.62
2018-11-14T06:05:37.930Z,4.08
2018-11-14T06:08:06.068Z,3.90
2018-11-14T06:10:34.130Z,3.30
2018-11-14T06:13:02.210Z,4.55
2018-11-14T06:15:30.462Z,4.22
2018-11-14T06:17:58.913Z,3.87
2018-11-14T06:20:27.160Z,4.33
2018-11-14T06:22:55.251Z,3.33
2018-11-14T06:25:31.403Z,3.62
2018-11-14T06:28:00.569Z,3.60
2018-11-14T06:30:29.056Z,4.87
2018-11-14T06:32:57.732Z,4.15
2018-11-14T06:35:25.837Z,4.12
2018-11-14T06:37:54.641Z,4.20
2018-11-14T06:40:23.031Z,4.10
2018-11-14T06:42:51.301Z,4.25
2018-11-14T06:45:20.512Z,4.47
2018-11-14T06:47:49.765Z,4.28
2018-11-14T06:50:17.865Z,4.72
2018-11-14T06:52:47.251Z,3.05
2018-11-14T06:55:16.542Z,4.25
2018-11-14T06:57:44.631Z,4.87
2018-11-14T07:00:16.263Z,5.83
2018-11-14T07:02:45.456Z,4.20
2018-11-14T07:05:14.935Z,5.47
2018-11-14T07:07:43.741Z,4.62
2018-11-14T07:10:14.080Z,4.22
2018-11-14T07:12:42.673Z,4.53
2018-11-14T07:15:16.136Z,4.28
2018-11-14T07:17:44.872Z,3.95
2018-11-14T07:20:15.842Z,5.40
2018-11-14T07:22:44.662Z,5.25
2018-11-14T07:25:13.207Z,4.30
2018-11-14T07:27:41.309Z,6.40
2018-11-14T07:30:14.933Z,5.70
2018-11-14T07:32:44.445Z,5.22
2018-11-14T07:35:13.954Z,7.33
2018-11-14T07:37:43.098Z,6.22
2018-11-14T07:40:13.265Z,6.95
2018-11-14T07:42:42.279Z,7.10
2018-11-14T07:45:12.821Z,6.28
2018-11-14T07:47:40.919Z,6.22
2018-11-14T07:50:12.572Z,6.85
2018-11-14T07:52:40.746Z,5.75
2018-11-14T07:55:10.103Z,5.65
2018-11-14T07:57:38.701Z,4.45
2018-11-14T08:00:11.666Z,6.33
2018-11-14T08:02:39.738Z,5.72
2018-11-14T08:05:07.828Z,5.80
2018-11-14T08:07:35.976Z,4.80
2018-11-14T08:10:04.703Z,5.17
2018-11-14T08:12:32.796Z,6.37
2018-11-14T08:15:00.906Z,4.95
2018-11-14T08:17:28.992Z,5.00
2018-11-14T08:19:57.089Z,5.97
2018-11-14T08:22:25.141Z,5.50
2018-11-14T08:24:53.256Z,4.78
2018-11-14T08:27:21.312Z,5.20
2018-11-14T08:29:49.423Z,4.80
2018-11-14T08:32:17.530Z,5.33
2018-11-14T08:34:45.634Z,5.62
2018-11-14T08:37:19.016Z,5.40
2018-11-14T08:39:47.087Z,5.67
2018-11-14T08:42:15.183Z,4.90
2018-11-14T08:44:43.245Z,4.47
2018-11-14T08:47:11.317Z,4.60
2018-11-14T08:49:39.426Z,4.33
2018-11-14T08:52:07.509Z,4.85
2018-11-14T08:54:35.619Z,4.60
2018-11-14T08:57:03.989Z,5.08
2018-11-14T08:59:32.065Z,4.55
2018-11-14T09:02:00.126Z,4.85
2018-11-14T09:04:28.186Z,5.42
2018-11-14T09:06:56.315Z,4.85
2018-11-14T09:09:24.367Z,4.47
2018-11-14T09:11:52.426Z,4.67
2018-11-14T09:14:20.539Z,5.78
2018-11-14T09:16:48.592Z,4.60
2018-11-14T09:19:16.653Z,5.58
2018-11-14T09:21:44.751Z,5.85
2018-11-14T09:24:12.823Z,5.47
2018-11-14T09:26:40.925Z,5.15
2018-11-14T09:29:09.017Z,4.17
2018-11-14T09:31:37.101Z,4.12
2018-11-14T09:34:05.169Z,4.10
2018-11-14T09:36:33.250Z,4.58
2018-11-14T09:39:01.312Z,4.80
2018-11-14T09:41:29.466Z,4.83
2018-11-14T09:43:57.429Z,5.08
2018-11-14T09:46:25.497Z,4.90
2018-11-14T09:48:53.660Z,5.40
2018-11-14T09:51:21.733Z,5.30
2018-11-14T09:53:49.858Z,6.55
2018-11-14T09:56:18.001Z,5.03
2018-11-14T09:58:46.076Z,5.58
2018-11-14T10:01:14.096Z,5.80
2018-11-14T10:03:42.249Z,6.45
2018-11-14T10:06:10.347Z,5.28
2018-11-14T10:08:38.421Z,5.97
2018-11-14T10:11:06.517Z,5.45
2018-11-14T10:13:34.617Z,5.20
2018-11-14T10:16:02.707Z,4.22
2018-11-14T10:18:30.818Z,5.47
2018-11-14T10:20:58.964Z,5.33
2018-11-14T10:23:27.080Z,6.15
2018-11-14T10:25:55.157Z,4.92
2018-11-14T10:28:23.305Z,5.72
2018-11-14T10:30:51.462Z,5.25
2018-11-14T10:33:19.529Z,5.33
2018-11-14T10:35:47.781Z,5.33
2018-11-14T10:38:16.265Z,4.63
2018-11-14T10:40:45.865Z,3.67
2018-11-14T10:43:14.117Z,4.73
2018-11-14T10:45:42.262Z,5.30
2018-11-14T10:48:10.438Z,4.03
2018-11-14T10:50:38.820Z,3.53
2018-11-14T10:53:06.949Z,4.13
2018-11-14T10:55:35.101Z,4.83
2018-11-14T10:58:03.212Z,4.33
2018-11-14T11:00:36.624Z,3.77
2018-11-14T11:03:10.152Z,3.50
2018-11-14T11:05:43.642Z,4.20
2018-11-14T11:08:18.230Z,3.50
2018-11-14T11:10:52.293Z,3.50
2018-11-14T11:13:25.868Z,2.93
2018-11-14T11:15:59.309Z,3.03
2018-11-14T11:18:28.852Z,2.30
2018-11-14T11:20:56.915Z,2.97
2018-11-14T11:23:25.089Z,2.17
2018-11-14T11:25:53.149Z,1.90
2018-11-14T11:28:21.599Z,2.30
2018-11-14T11:30:49.776Z,3.20
2018-11-14T11:33:17.832Z,2.20
2018-11-14T11:35:45.991Z,2.00
2018-11-14T11:38:14.389Z,3.03
2018-11-14T11:40:42.555Z,2.80
2018-11-14T11:43:10.581Z,2.60
2018-11-14T11:45:38.704Z,2.50
2018-11-14T11:48:06.837Z,2.33
2018-11-14T11:50:34.940Z,2.07
2018-11-14T11:53:03.048Z,2.50
2018-11-14T11:55:31.108Z,2.73
2018-11-14T11:57:59.174Z,2.63
2018-11-14T12:00:27.394Z,2.97
2018-11-14T12:02:55.342Z,3.63
2018-11-14T12:05:23.402Z,3.73
2018-11-14T12:07:51.541Z,3.40
2018-11-14T12:10:19.673Z,3.73
2018-11-14T12:12:47.756Z,3.07
2018-11-14T12:15:15.865Z,3.80
2018-11-14T12:17:44.448Z,3.27
2018-11-14T12:20:13.930Z,3.23
2018-11-14T12:22:42.611Z,3.27
2018-11-14T12:25:13.185Z,3.20
2018-11-14T12:27:41.307Z,2.77
2018-11-14T12:30:11.919Z,3.23
2018-11-14T12:32:40.184Z,3.23
2018-11-14T12:35:09.895Z,3.90
2018-11-14T12:37:37.912Z,3.50
2018-11-14T12:40:07.352Z,5.77
2018-11-14T12:42:35.467Z,37.37
2018-11-14T12:45:03.628Z,13.60
2018-11-14T12:47:31.723Z,11.13
2018-11-14T12:49:59.805Z,4.10
2018-11-14T12:52:28.045Z,5.60
2018-11-14T12:54:56.134Z,2.87
2018-11-14T12:57:24.220Z,2.70
2018-11-14T12:59:52.346Z,3.00
2018-11-14T13:02:20.431Z,2.73
2018-11-14T13:04:48.603Z,2.67
2018-11-14T13:07:16.705Z,2.53
2018-11-14T13:09:45.344Z,8.43
2018-11-14T13:12:13.445Z,2.60
2018-11-14T13:14:41.512Z,2.70
2018-11-14T13:17:09.552Z,2.13
2018-11-14T13:19:37.657Z,30.53
2018-11-14T13:22:05.720Z,18.23
2018-11-14T13:24:33.793Z,10.27
2018-11-14T13:27:01.924Z,8.50
2018-11-14T13:29:30.496Z,3.30
2018-11-14T13:31:58.604Z,1.90
2018-11-14T13:34:26.943Z,3.40
2018-11-14T13:36:55.101Z,7.47
2018-11-14T13:39:23.170Z,7.40
2018-11-14T13:41:51.277Z,11.60
2018-11-14T13:44:19.380Z,10.60
2018-11-14T13:46:47.477Z,7.67
2018-11-14T13:49:15.827Z,27.10
2018-11-14T13:51:43.613Z,4.57
2018-11-14T13:54:11.724Z,3.10
2018-11-14T13:56:39.828Z,2.60
2018-11-14T13:59:07.911Z,2.13
2018-11-14T14:01:35.997Z,2.50
2018-11-14T14:04:04.254Z,3.93
2018-11-14T14:06:32.435Z,3.13
2018-11-14T14:09:00.584Z,3.40
2018-11-14T14:11:28.721Z,4.30
2018-11-14T14:14:02.262Z,2.40
2018-11-14T14:16:30.442Z,4.33
2018-11-14T14:18:58.463Z,4.10
2018-11-14T14:21:26.564Z,3.37
2018-11-14T14:23:54.649Z,8.17
2018-11-14T14:26:22.750Z,4.30
2018-11-14T14:28:51.685Z,3.90
2018-11-14T14:31:19.858Z,2.80
2018-11-14T14:33:47.962Z,2.67
2018-11-14T14:36:16.050Z,3.60
2018-11-14T14:38:44.203Z,3.03
2018-11-14T14:41:12.284Z,2.07
2018-11-14T14:43:40.348Z,2.30
2018-11-14T14:46:08.431Z,2.50
2018-11-14T14:48:36.514Z,3.17
2018-11-14T14:51:04.965Z,3.07
2018-11-14T14:53:33.056Z,3.20
2018-11-14T14:56:01.141Z,2.30
2018-11-14T14:58:29.214Z,2.70
2018-11-14T15:00:57.272Z,3.47
2018-11-14T15:03:25.389Z,5.60
2018-11-14T15:05:53.536Z,6.67
2018-11-14T15:08:21.612Z,6.07
2018-11-14T15:10:49.746Z,4.20
2018-11-14T15:13:17.833Z,4.60
2018-11-14T15:15:46.134Z,4.97
2018-11-14T15:18:14.105Z,4.27
2018-11-14T15:20:42.210Z,4.63
2018-11-14T15:23:10.414Z,4.83
2018-11-14T15:25:38.584Z,4.20
2018-11-14T15:28:06.843Z,4.53
2018-11-14T15:30:35.057Z,3.87
2018-11-14T15:33:03.203Z,7.60
2018-11-14T15:35:31.312Z,5.20
2018-11-14T15:37:59.397Z,4.40
2018-11-14T15:40:27.949Z,5.93
2018-11-14T15:42:56.166Z,4.67
2018-11-14T15:45:25.751Z,4.43
2018-11-14T15:47:53.839Z,4.40
2018-11-14T15:50:23.310Z,4.30
2018-11-14T15:52:52.319Z,5.67
2018-11-14T15:55:20.878Z,6.13
2018-11-14T15:57:48.965Z,7.03
2018-11-14T16:00:25.418Z,6.60
2018-11-14T16:02:53.490Z,5.40
2018-11-14T16:05:22.779Z,5.17
2018-11-14T16:07:52.214Z,5.97
2018-11-14T16:10:21.706Z,8.30
2018-11-14T16:12:49.805Z,12.40
2018-11-14T16:15:19.503Z,12.40
2018-11-14T16:17:47.633Z,9.27
2018-11-14T16:20:18.198Z,8.93
2018-11-14T16:22:46.361Z,7.60
2018-11-14T16:25:15.861Z,7.00
2018-11-14T16:27:44.905Z,6.20
2018-11-14T16:30:17.481Z,5.30
2018-11-14T16:32:46.652Z,4.73
2018-11-14T16:35:14.886Z,5.40
2018-11-14T16:37:43.507Z,5.03
2018-11-14T16:40:16.469Z,5.23
2018-11-14T16:42:44.673Z,4.63
2018-11-14T16:45:13.712Z,4.90
2018-11-14T16:47:42.190Z,5.50
2018-11-14T16:50:12.469Z,6.13
2018-11-14T16:52:40.904Z,6.03
2018-11-14T16:55:13.072Z,7.80
2018-11-14T16:57:43.721Z,5.90
2018-11-14T17:00:15.625Z,5.70
2018-11-14T17:02:43.873Z,4.53
2018-11-14T17:05:12.802Z,6.10
2018-11-14T17:07:40.889Z,6.97
2018-11-14T17:10:11.494Z,8.97
2018-11-14T17:12:39.602Z,9.03
2018-11-14T17:15:09.568Z,8.13
2018-11-14T17:17:37.703Z,8.90
2018-11-14T17:20:06.489Z,8.00
2018-11-14T17:22:34.567Z,8.40
2018-11-14T17:25:02.667Z,9.27
2018-11-14T17:27:30.756Z,7.20
2018-11-14T17:29:58.828Z,7.73
2018-11-14T17:32:26.928Z,8.53
2018-11-14T17:34:55.053Z,7.90
2018-11-14T17:37:23.158Z,9.23
2018-11-14T17:39:51.302Z,7.70
2018-11-14T17:42:19.494Z,10.10
2018-11-14T17:44:47.535Z,9.20
2018-11-14T17:47:15.657Z,7.80
2018-11-14T17:49:43.780Z,8.83
2018-11-14T17:52:11.856Z,9.07
2018-11-14T17:54:39.926Z,8.60
2018-11-14T17:57:08.038Z,9.00
2018-11-14T17:59:36.165Z,10.53
2018-11-14T18:02:04.626Z,20.00
2018-11-14T18:04:32.734Z,23.80
2018-11-14T18:07:01.009Z,16.60
2018-11-14T18:09:29.097Z,23.47
2018-11-14T18:11:57.212Z,16.07
2018-11-14T18:14:25.458Z,9.83
2018-11-14T18:16:53.530Z,8.83
2018-11-14T18:19:21.599Z,9.33
2018-11-14T18:21:49.678Z,10.00
2018-11-14T18:24:17.781Z,9.70
2018-11-14T18:26:45.926Z,7.83
2018-11-14T18:29:14.061Z,6.07
2018-11-14T18:31:42.167Z,5.90
2018-11-14T18:34:10.258Z,5.37
2018-11-14T18:36:38.318Z,5.30
2018-11-14T18:39:09.561Z,7.37
2018-11-14T18:41:37.650Z,6.92
2018-11-14T18:44:05.804Z,7.63
2018-11-14T18:46:33.906Z,5.70
2018-11-14T18:49:01.961Z,7.40
2018-11-14T18:51:30.055Z,8.00
2018-11-14T18:53:58.134Z,6.87
2018-11-14T18:56:26.210Z,7.30
2018-11-14T18:58:54.330Z,6.03
2018-11-14T19:01:22.454Z,7.80
2018-11-14T19:03:50.614Z,6.62
2018-11-14T19:06:18.745Z,6.45
2018-11-14T19:08:47.349Z,6.00
2018-11-14T19:11:15.421Z,7.50
2018-11-14T19:13:43.510Z,5.42
2018-11-14T19:16:11.631Z,5.65
2018-11-14T19:18:39.775Z,6.83
2018-11-14T19:21:07.812Z,6.90
2018-11-14T19:23:35.933Z,7.70
2018-11-14T19:26:04.082Z,7.87
2018-11-14T19:28:32.294Z,7.30
2018-11-14T19:31:00.372Z,8.20
2018-11-14T19:33:28.445Z,8.18
2018-11-14T19:35:56.502Z,8.20
2018-11-14T19:38:24.719Z,7.33
2018-11-14T19:40:52.793Z,7.17
2018-11-14T19:43:20.868Z,7.25
2018-11-14T19:45:48.960Z,8.20
2018-11-14T19:48:17.012Z,7.92
2018-11-14T19:50:45.065Z,8.38
2018-11-14T19:53:13.173Z,8.15
2018-11-14T19:55:41.312Z,7.95
2018-11-14T19:58:09.351Z,7.10
2018-11-14T20:00:38.827Z,6.37
2018-11-14T20:03:07.391Z,7.62
2018-11-14T20:05:35.518Z,7.42
2018-11-14T20:08:03.572Z,8.40
2018-11-14T20:10:32.938Z,8.00
2018-11-14T20:13:01.025Z,8.50
2018-11-14T20:15:31.746Z,8.10
2018-11-14T20:17:59.783Z,9.15
2018-11-14T20:20:29.461Z,8.85
2018-11-14T20:22:57.528Z,8.25
2018-11-14T20:25:25.744Z,7.90
2018-11-14T20:27:53.870Z,7.83
2018-11-14T20:30:23.489Z,7.42
2018-11-14T20:32:52.246Z,8.60
2018-11-14T20:35:21.345Z,8.43
2018-11-14T20:37:49.457Z,10.32
2018-11-14T20:40:19.165Z,8.95
2018-11-14T20:42:47.970Z,9.65
2018-11-14T20:45:17.525Z,11.05
2018-11-14T20:47:45.633Z,10.30
2018-11-14T20:50:16.138Z,10.10
2018-11-14T20:52:45.146Z,10.85
2018-11-14T20:55:13.503Z,10.03
2018-11-14T20:57:42.253Z,10.10
2018-11-14T21:00:13.449Z,11.05
2018-11-14T21:02:42.212Z,11.53
2018-11-14T21:05:11.640Z,11.00
2018-11-14T21:07:39.811Z,12.25
2018-11-14T21:10:10.261Z,11.05
2018-11-14T21:12:38.828Z,11.85
2018-11-14T21:15:08.037Z,12.15
2018-11-14T21:17:36.266Z,10.72
2018-11-14T21:20:06.297Z,13.53
2018-11-14T21:22:34.358Z,11.83
2018-11-14T21:25:02.508Z,11.60
2018-11-14T21:27:30.521Z,11.50
2018-11-14T21:29:59.203Z,10.82
2018-11-14T21:32:27.249Z,11.15
2018-11-14T21:34:55.362Z,12.65
2018-11-14T21:37:23.462Z,11.95
2018-11-14T21:39:51.620Z,10.78
2018-11-14T21:42:19.718Z,11.20
2018-11-14T21:44:48.053Z,9.08
2018-11-14T21:47:16.128Z,10.75
2018-11-14T21:49:44.238Z,11.43
2018-11-14T21:52:12.359Z,12.00
2018-11-14T21:54:40.607Z,12.25
2018-11-14T21:57:08.662Z,11.57
2018-11-14T21:59:36.804Z,11.25
2018-11-14T22:02:04.938Z,11.33
2018-11-14T22:04:33.039Z,12.23
2018-11-14T22:07:01.174Z,13.10
2018-11-14T22:09:29.300Z,12.80
2018-11-14T22:11:57.374Z,13.62
2018-11-14T22:14:25.453Z,10.53
2018-11-14T22:16:53.498Z,11.33
2018-11-14T22:19:21.601Z,10.32
2018-11-14T22:21:49.646Z,10.93
2018-11-14T22:24:17.700Z,12.20
2018-11-14T22:26:45.782Z,11.80
2018-11-14T22:29:13.886Z,10.35
2018-11-14T22:31:42.173Z,11.10
2018-11-14T22:34:10.246Z,11.78
2018-11-14T22:36:38.608Z,12.20
2018-11-14T22:39:08.712Z,11.60
2018-11-14T22:41:36.787Z,9.98
2018-11-14T22:44:05.154Z,12.75
2018-11-14T22:46:33.341Z,11.53
2018-11-14T22:49:01.650Z,10.80
2018-11-14T22:51:30.237Z,11.50
2018-11-14T22:53:58.368Z,12.45
2018-11-14T22:56:26.525Z,13.32
2018-11-14T22:58:54.594Z,12.05
2018-11-14T23:01:22.726Z,11.60
2018-11-14T23:03:50.788Z,12.53
2018-11-14T23:06:18.901Z,12.70
2018-11-14T23:08:47.000Z,13.62
2018-11-14T23:11:15.213Z,13.35
2018-11-14T23:13:43.314Z,13.80
2018-11-14T23:16:11.376Z,14.05
2018-11-14T23:18:39.445Z,14.55
2018-11-14T23:21:07.613Z,12.15
2018-11-14T23:23:35.705Z,15.28
2018-11-14T23:26:03.785Z,13.25
2018-11-14T23:28:31.868Z,11.12
2018-11-14T23:30:59.949Z,13.53
2018-11-14T23:33:28.148Z,13.38
2018-11-14T23:35:56.478Z,11.68
2018-11-14T23:38:24.590Z,13.62
2018-11-14T23:40:52.656Z,12.40
2018-11-14T23:43:20.716Z,10.25
2018-11-14T23:45:48.986Z,13.50
2018-11-14T23:48:17.061Z,14.45
2018-11-14T23:50:45.162Z,11.25
2018-11-14T23:53:13.252Z,11.78
2018-11-14T23:55:41.328Z,12.05
2018-11-14T23:58:09.460Z,17.48
